sensor_id;sensor_type;location;lat;lon;timestamp;P1;durP1;ratioP1;P2;durP2;ratioP2
13879;SDS011;7010;48.200;16.332;2023-02-11T00:01:10;15.10;;;12.50;;
13879;SDS011;7010;48.200;16.332;2023-02-11T00:03:43;14.05;;;11.63;;
13879;SDS011;7010;48.200;16.332;2023-02-11T00:06:12;15.03;;;10.93;;
13879;SDS011;7010;48.200;16.332;2023-02-11T00:08:41;12.13;;;10.47;;
13879;SDS011;7010;48.200;16.332;2023-02-11T00:11:11;17.00;;;12.45;;
13879;SDS011;7010;48.200;16.332;2023-02-11T00:13:41;16.13;;;12.20;;
13879;SDS011;7010;48.200;16.332;2023-02-11T00:16:10;13.93;;;11.37;;
13879;SDS011;7010;48.200;16.332;2023-02-11T00:18:40;18.47;;;12.53;;
13879;SDS011;7010;48.200;16.332;2023-02-11T00:21:11;12.80;;;11.03;;
13879;SDS011;7010;48.200;16.332;2023-02-11T00:23:41;16.85;;;11.57;;
13879;SDS011;7010;48.200;16.332;2023-02-11T00:26:10;20.63;;;12.63;;
13879;SDS011;7010;48.200;16.332;2023-02-11T00:28:39;16.03;;;11.77;;
13879;SDS011;7010;48.200;16.332;2023-02-11T00:31:08;19.90;;;12.97;;
13879;SDS011;7010;48.200;16.332;2023-02-11T00:33:36;17.27;;;12.30;;
13879;SDS011;7010;48.200;16.332;2023-02-11T00:36:05;17.87;;;11.77;;
13879;SDS011;7010;48.200;16.332;2023-02-11T00:38:37;15.35;;;11.40;;
13879;SDS011;7010;48.200;16.332;2023-02-11T00:41:06;19.37;;;12.43;;
13879;SDS011;7010;48.200;16.332;2023-02-11T00:43:34;17.75;;;11.65;;
13879;SDS011;7010;48.200;16.332;2023-02-11T00:46:02;20.47;;;12.67;;
13879;SDS011;7010;48.200;16.332;2023-02-11T00:48:31;15.03;;;11.10;;
13879;SDS011;7010;48.200;16.332;2023-02-11T00:50:59;15.37;;;11.97;;
13879;SDS011;7010;48.200;16.332;2023-02-11T00:53:29;18.40;;;12.50;;
13879;SDS011;7010;48.200;16.332;2023-02-11T00:55:59;13.33;;;10.70;;
13879;SDS011;7010;48.200;16.332;2023-02-11T00:58:27;13.90;;;11.80;;
13879;SDS011;7010;48.200;16.332;2023-02-11T01:00:56;14.43;;;10.53;;
13879;SDS011;7010;48.200;16.332;2023-02-11T01:03:24;16.93;;;11.00;;
13879;SDS011;7010;48.200;16.332;2023-02-11T01:05:52;17.57;;;12.07;;
13879;SDS011;7010;48.200;16.332;2023-02-11T01:08:21;18.27;;;12.70;;
13879;SDS011;7010;48.200;16.332;2023-02-11T01:10:53;12.80;;;10.57;;
13879;SDS011;7010;48.200;16.332;2023-02-11T01:13:24;15.90;;;11.63;;
13879;SDS011;7010;48.200;16.332;2023-02-11T01:15:53;17.47;;;11.80;;
13879;SDS011;7010;48.200;16.332;2023-02-11T01:18:23;27.00;;;12.20;;
13879;SDS011;7010;48.200;16.332;2023-02-11T01:20:51;13.83;;;11.27;;
13879;SDS011;7010;48.200;16.332;2023-02-11T01:23:20;19.50;;;11.70;;
13879;SDS011;7010;48.200;16.332;2023-02-11T01:25:49;14.70;;;10.93;;
13879;SDS011;7010;48.200;16.332;2023-02-11T01:28:18;15.97;;;12.40;;
13879;SDS011;7010;48.200;16.332;2023-02-11T01:30:49;15.63;;;11.93;;
13879;SDS011;7010;48.200;16.332;2023-02-11T01:33:18;17.93;;;12.77;;
13879;SDS011;7010;48.200;16.332;2023-02-11T01:35:47;17.97;;;13.00;;
13879;SDS011;7010;48.200;16.332;2023-02-11T01:38:16;14.27;;;11.80;;
13879;SDS011;7010;48.200;16.332;2023-02-11T01:40:46;19.27;;;13.03;;
13879;SDS011;7010;48.200;16.332;2023-02-11T01:43:15;16.20;;;12.93;;
13879;SDS011;7010;48.200;16.332;2023-02-11T01:45:57;24.00;;;15.03;;
13879;SDS011;7010;48.200;16.332;2023-02-11T01:48:28;17.67;;;13.67;;
13879;SDS011;7010;48.200;16.332;2023-02-11T01:51:02;12.93;;;11.47;;
13879;SDS011;7010;48.200;16.332;2023-02-11T01:53:33;20.37;;;14.67;;
13879;SDS011;7010;48.200;16.332;2023-02-11T01:56:22;18.37;;;13.67;;
13879;SDS011;7010;48.200;16.332;2023-02-11T01:59:10;16.60;;;13.63;;
13879;SDS011;7010;48.200;16.332;2023-02-11T02:01:47;16.70;;;12.73;;
13879;SDS011;7010;48.200;16.332;2023-02-11T02:04:20;15.10;;;12.80;;
13879;SDS011;7010;48.200;16.332;2023-02-11T02:06:58;20.10;;;13.63;;
13879;SDS011;7010;48.200;16.332;2023-02-11T02:09:31;22.43;;;15.33;;
13879;SDS011;7010;48.200;16.332;2023-02-11T02:12:04;15.03;;;12.90;;
13879;SDS011;7010;48.200;16.332;2023-02-11T02:14:36;25.37;;;14.70;;
13879;SDS011;7010;48.200;16.332;2023-02-11T02:17:06;19.23;;;14.90;;
13879;SDS011;7010;48.200;16.332;2023-02-11T02:22:54;17.47;;;14.00;;
13879;SDS011;7010;48.200;16.332;2023-02-11T02:25:50;20.30;;;14.23;;
13879;SDS011;7010;48.200;16.332;2023-02-11T02:28:47;23.60;;;14.37;;
13879;SDS011;7010;48.200;16.332;2023-02-11T02:31:41;20.87;;;13.23;;
13879;SDS011;7010;48.200;16.332;2023-02-11T02:34:28;20.27;;;13.77;;
13879;SDS011;7010;48.200;16.332;2023-02-11T02:37:02;21.13;;;15.80;;
13879;SDS011;7010;48.200;16.332;2023-02-11T02:39:34;18.50;;;13.93;;
13879;SDS011;7010;48.200;16.332;2023-02-11T02:42:03;22.17;;;15.67;;
13879;SDS011;7010;48.200;16.332;2023-02-11T02:44:32;21.83;;;14.30;;
13879;SDS011;7010;48.200;16.332;2023-02-11T02:47:00;22.03;;;14.60;;
13879;SDS011;7010;48.200;16.332;2023-02-11T02:49:30;22.60;;;15.53;;
13879;SDS011;7010;48.200;16.332;2023-02-11T02:52:02;21.80;;;15.73;;
13879;SDS011;7010;48.200;16.332;2023-02-11T02:57:44;22.63;;;16.70;;
13879;SDS011;7010;48.200;16.332;2023-02-11T03:00:25;18.90;;;15.07;;
13879;SDS011;7010;48.200;16.332;2023-02-11T03:03:04;25.57;;;14.53;;
13879;SDS011;7010;48.200;16.332;2023-02-11T03:05:47;28.80;;;14.37;;
13879;SDS011;7010;48.200;16.332;2023-02-11T03:08:22;16.60;;;13.57;;
13879;SDS011;7010;48.200;16.332;2023-02-11T03:10:55;17.23;;;14.33;;
13879;SDS011;7010;48.200;16.332;2023-02-11T03:13:25;25.30;;;15.43;;
13879;SDS011;7010;48.200;16.332;2023-02-11T03:15:59;18.13;;;13.70;;
13879;SDS011;7010;48.200;16.332;2023-02-11T03:18:34;16.93;;;12.03;;
13879;SDS011;7010;48.200;16.332;2023-02-11T03:21:06;19.83;;;14.70;;
13879;SDS011;7010;48.200;16.332;2023-02-11T03:23:38;17.27;;;13.48;;
13879;SDS011;7010;48.200;16.332;2023-02-11T03:26:10;30.20;;;16.70;;
13879;SDS011;7010;48.200;16.332;2023-02-11T03:28:44;27.23;;;16.87;;
13879;SDS011;7010;48.200;16.332;2023-02-11T03:31:25;26.53;;;17.33;;
13879;SDS011;7010;48.200;16.332;2023-02-11T03:33:59;22.47;;;15.33;;
13879;SDS011;7010;48.200;16.332;2023-02-11T03:36:37;30.77;;;16.00;;
13879;SDS011;7010;48.200;16.332;2023-02-11T03:39:11;18.87;;;13.40;;
13879;SDS011;7010;48.200;16.332;2023-02-11T03:41:42;26.23;;;16.63;;
13879;SDS011;7010;48.200;16.332;2023-02-11T03:44:13;26.97;;;16.80;;
13879;SDS011;7010;48.200;16.332;2023-02-11T03:46:43;15.70;;;13.17;;
13879;SDS011;7010;48.200;16.332;2023-02-11T03:49:17;28.13;;;16.70;;
13879;SDS011;7010;48.200;16.332;2023-02-11T03:51:50;26.80;;;15.83;;
13879;SDS011;7010;48.200;16.332;2023-02-11T03:54:22;20.90;;;15.30;;
13879;SDS011;7010;48.200;16.332;2023-02-11T03:56:54;20.57;;;14.87;;
13879;SDS011;7010;48.200;16.332;2023-02-11T03:59:24;17.90;;;14.37;;
13879;SDS011;7010;48.200;16.332;2023-02-11T04:01:53;25.97;;;16.43;;
13879;SDS011;7010;48.200;16.332;2023-02-11T04:04:21;24.23;;;16.47;;
13879;SDS011;7010;48.200;16.332;2023-02-11T04:06:51;19.50;;;15.63;;
13879;SDS011;7010;48.200;16.332;2023-02-11T04:09:20;20.00;;;15.13;;
13879;SDS011;7010;48.200;16.332;2023-02-11T04:11:48;19.58;;;14.30;;
13879;SDS011;7010;48.200;16.332;2023-02-11T04:14:16;17.60;;;15.43;;
13879;SDS011;7010;48.200;16.332;2023-02-11T04:16:45;27.30;;;15.80;;
13879;SDS011;7010;48.200;16.332;2023-02-11T04:19:13;20.27;;;15.27;;
13879;SDS011;7010;48.200;16.332;2023-02-11T04:21:41;22.07;;;16.53;;
13879;SDS011;7010;48.200;16.332;2023-02-11T04:24:11;19.63;;;16.27;;
13879;SDS011;7010;48.200;16.332;2023-02-11T04:26:39;21.40;;;15.70;;
13879;SDS011;7010;48.200;16.332;2023-02-11T04:29:07;18.57;;;15.37;;
13879;SDS011;7010;48.200;16.332;2023-02-11T04:31:36;25.37;;;16.40;;
13879;SDS011;7010;48.200;16.332;2023-02-11T04:34:04;23.47;;;16.57;;
13879;SDS011;7010;48.200;16.332;2023-02-11T04:36:32;24.77;;;17.20;;
13879;SDS011;7010;48.200;16.332;2023-02-11T04:39:00;18.00;;;15.65;;
13879;SDS011;7010;48.200;16.332;2023-02-11T04:41:31;18.93;;;15.73;;
13879;SDS011;7010;48.200;16.332;2023-02-11T04:44:00;21.07;;;16.57;;
13879;SDS011;7010;48.200;16.332;2023-02-11T04:46:28;23.10;;;16.33;;
13879;SDS011;7010;48.200;16.332;2023-02-11T04:48:57;17.87;;;14.83;;
13879;SDS011;7010;48.200;16.332;2023-02-11T04:51:25;16.88;;;15.13;;
13879;SDS011;7010;48.200;16.332;2023-02-11T04:53:53;20.40;;;15.52;;
13879;SDS011;7010;48.200;16.332;2023-02-11T04:56:21;19.43;;;16.20;;
13879;SDS011;7010;48.200;16.332;2023-02-11T04:58:51;20.55;;;16.08;;
13879;SDS011;7010;48.200;16.332;2023-02-11T05:01:19;19.87;;;15.93;;
13879;SDS011;7010;48.200;16.332;2023-02-11T05:03:48;19.20;;;15.38;;
13879;SDS011;7010;48.200;16.332;2023-02-11T05:06:16;24.90;;;16.30;;
13879;SDS011;7010;48.200;16.332;2023-02-11T05:08:45;18.35;;;15.60;;
13879;SDS011;7010;48.200;16.332;2023-02-11T05:11:14;21.27;;;15.77;;
13879;SDS011;7010;48.200;16.332;2023-02-11T05:13:43;18.77;;;15.27;;
13879;SDS011;7010;48.200;16.332;2023-02-11T05:16:14;21.00;;;16.48;;
13879;SDS011;7010;48.200;16.332;2023-02-11T05:18:43;19.55;;;15.38;;
13879;SDS011;7010;48.200;16.332;2023-02-11T05:21:12;16.40;;;14.38;;
13879;SDS011;7010;48.200;16.332;2023-02-11T05:23:42;19.60;;;14.40;;
13879;SDS011;7010;48.200;16.332;2023-02-11T05:26:11;25.63;;;14.25;;
13879;SDS011;7010;48.200;16.332;2023-02-11T05:28:40;15.05;;;13.10;;
13879;SDS011;7010;48.200;16.332;2023-02-11T05:31:09;20.42;;;14.20;;
13879;SDS011;7010;48.200;16.332;2023-02-11T05:33:41;20.92;;;15.25;;
13879;SDS011;7010;48.200;16.332;2023-02-11T05:36:11;21.05;;;15.43;;
13879;SDS011;7010;48.200;16.332;2023-02-11T05:38:40;19.63;;;14.73;;
13879;SDS011;7010;48.200;16.332;2023-02-11T05:41:09;16.63;;;14.02;;
13879;SDS011;7010;48.200;16.332;2023-02-11T05:43:38;15.23;;;12.98;;
13879;SDS011;7010;48.200;16.332;2023-02-11T05:46:06;21.08;;;13.32;;
13879;SDS011;7010;48.200;16.332;2023-02-11T05:48:34;16.30;;;12.75;;
13879;SDS011;7010;48.200;16.332;2023-02-11T05:51:04;21.00;;;14.82;;
13879;SDS011;7010;48.200;16.332;2023-02-11T05:53:33;14.98;;;12.90;;
13879;SDS011;7010;48.200;16.332;2023-02-11T05:56:01;20.10;;;12.32;;
13879;SDS011;7010;48.200;16.332;2023-02-11T05:58:29;20.60;;;13.45;;
13879;SDS011;7010;48.200;16.332;2023-02-11T06:00:58;20.35;;;13.13;;
13879;SDS011;7010;48.200;16.332;2023-02-11T06:03:26;14.23;;;12.43;;
13879;SDS011;7010;48.200;16.332;2023-02-11T06:05:55;16.58;;;12.82;;
13879;SDS011;7010;48.200;16.332;2023-02-11T06:08:24;13.82;;;12.45;;
13879;SDS011;7010;48.200;16.332;2023-02-11T06:10:53;19.02;;;14.07;;
13879;SDS011;7010;48.200;16.332;2023-02-11T06:13:21;17.98;;;13.82;;
13879;SDS011;7010;48.200;16.332;2023-02-11T06:15:54;16.57;;;13.10;;
13879;SDS011;7010;48.200;16.332;2023-02-11T06:18:23;16.48;;;12.88;;
13879;SDS011;7010;48.200;16.332;2023-02-11T06:20:52;15.87;;;12.87;;
13879;SDS011;7010;48.200;16.332;2023-02-11T06:23:20;16.58;;;13.35;;
13879;SDS011;7010;48.200;16.332;2023-02-11T06:25:50;16.10;;;12.20;;
13879;SDS011;7010;48.200;16.332;2023-02-11T06:28:19;21.30;;;14.77;;
13879;SDS011;7010;48.200;16.332;2023-02-11T06:30:47;18.13;;;13.77;;
13879;SDS011;7010;48.200;16.332;2023-02-11T06:33:16;23.05;;;13.75;;
13879;SDS011;7010;48.200;16.332;2023-02-11T06:35:44;23.05;;;12.30;;
13879;SDS011;7010;48.200;16.332;2023-02-11T06:38:12;15.68;;;12.45;;
13879;SDS011;7010;48.200;16.332;2023-02-11T06:40:45;35.00;;;14.20;;
13879;SDS011;7010;48.200;16.332;2023-02-11T06:43:16;17.23;;;13.50;;
13879;SDS011;7010;48.200;16.332;2023-02-11T06:45:44;19.20;;;13.20;;
13879;SDS011;7010;48.200;16.332;2023-02-11T06:48:12;16.58;;;11.30;;
13879;SDS011;7010;48.200;16.332;2023-02-11T06:50:40;20.60;;;14.10;;
13879;SDS011;7010;48.200;16.332;2023-02-11T06:53:09;18.48;;;14.35;;
13879;SDS011;7010;48.200;16.332;2023-02-11T06:55:37;19.00;;;14.63;;
13879;SDS011;7010;48.200;16.332;2023-02-11T06:58:05;19.15;;;13.05;;
13879;SDS011;7010;48.200;16.332;2023-02-11T07:00:35;14.85;;;13.00;;
13879;SDS011;7010;48.200;16.332;2023-02-11T07:03:04;19.70;;;13.50;;
13879;SDS011;7010;48.200;16.332;2023-02-11T07:05:32;21.52;;;14.45;;
13879;SDS011;7010;48.200;16.332;2023-02-11T07:08:02;17.08;;;13.48;;
13879;SDS011;7010;48.200;16.332;2023-02-11T07:10:30;17.67;;;13.75;;
13879;SDS011;7010;48.200;16.332;2023-02-11T07:13:00;22.45;;;13.10;;
13879;SDS011;7010;48.200;16.332;2023-02-11T07:15:28;18.23;;;13.27;;
13879;SDS011;7010;48.200;16.332;2023-02-11T07:17:58;18.05;;;13.95;;
13879;SDS011;7010;48.200;16.332;2023-02-11T07:20:26;22.48;;;13.93;;
13879;SDS011;7010;48.200;16.332;2023-02-11T07:22:55;18.98;;;14.68;;
13879;SDS011;7010;48.200;16.332;2023-02-11T07:25:25;22.80;;;14.43;;
13879;SDS011;7010;48.200;16.332;2023-02-11T07:27:53;18.65;;;13.68;;
13879;SDS011;7010;48.200;16.332;2023-02-11T07:30:21;20.85;;;14.00;;
13879;SDS011;7010;48.200;16.332;2023-02-11T07:32:50;14.07;;;12.45;;
13879;SDS011;7010;48.200;16.332;2023-02-11T07:35:19;17.38;;;13.75;;
13879;SDS011;7010;48.200;16.332;2023-02-11T07:37:48;20.00;;;13.30;;
13879;SDS011;7010;48.200;16.332;2023-02-11T07:40:16;17.92;;;13.52;;
13879;SDS011;7010;48.200;16.332;2023-02-11T07:42:44;21.70;;;14.90;;
13879;SDS011;7010;48.200;16.332;2023-02-11T07:45:13;19.30;;;14.93;;
13879;SDS011;7010;48.200;16.332;2023-02-11T07:47:42;16.90;;;13.43;;
13879;SDS011;7010;48.200;16.332;2023-02-11T07:50:11;18.58;;;14.43;;
13879;SDS011;7010;48.200;16.332;2023-02-11T07:52:41;11.75;;;10.48;;
13879;SDS011;7010;48.200;16.332;2023-02-11T07:55:09;31.13;;;12.93;;
13879;SDS011;7010;48.200;16.332;2023-02-11T07:57:37;14.55;;;12.48;;
13879;SDS011;7010;48.200;16.332;2023-02-11T08:00:06;15.70;;;13.50;;
13879;SDS011;7010;48.200;16.332;2023-02-11T08:02:35;17.58;;;12.98;;
13879;SDS011;7010;48.200;16.332;2023-02-11T08:05:04;14.77;;;12.27;;
13879;SDS011;7010;48.200;16.332;2023-02-11T08:07:32;21.60;;;12.43;;
13879;SDS011;7010;48.200;16.332;2023-02-11T08:10:04;18.08;;;12.05;;
13879;SDS011;7010;48.200;16.332;2023-02-11T08:12:32;17.95;;;11.80;;
13879;SDS011;7010;48.200;16.332;2023-02-11T08:15:01;15.82;;;11.38;;
13879;SDS011;7010;48.200;16.332;2023-02-11T08:17:29;20.02;;;13.05;;
13879;SDS011;7010;48.200;16.332;2023-02-11T08:19:57;18.60;;;10.50;;
13879;SDS011;7010;48.200;16.332;2023-02-11T08:22:25;13.23;;;11.05;;
13879;SDS011;7010;48.200;16.332;2023-02-11T08:24:54;11.38;;;10.23;;
13879;SDS011;7010;48.200;16.332;2023-02-11T08:27:25;15.40;;;12.02;;
13879;SDS011;7010;48.200;16.332;2023-02-11T08:29:53;15.18;;;11.98;;
13879;SDS011;7010;48.200;16.332;2023-02-11T08:32:22;10.35;;;9.10;;
13879;SDS011;7010;48.200;16.332;2023-02-11T08:34:50;14.10;;;11.32;;
13879;SDS011;7010;48.200;16.332;2023-02-11T08:37:19;13.13;;;11.38;;
13879;SDS011;7010;48.200;16.332;2023-02-11T08:39:48;16.33;;;9.82;;
13879;SDS011;7010;48.200;16.332;2023-02-11T08:42:16;10.40;;;9.20;;
13879;SDS011;7010;48.200;16.332;2023-02-11T08:44:46;13.60;;;11.07;;
13879;SDS011;7010;48.200;16.332;2023-02-11T08:47:14;13.18;;;11.57;;
13879;SDS011;7010;48.200;16.332;2023-02-11T08:49:42;12.38;;;10.75;;
13879;SDS011;7010;48.200;16.332;2023-02-11T08:52:10;18.13;;;12.07;;
13879;SDS011;7010;48.200;16.332;2023-02-11T08:54:39;12.90;;;10.45;;
13879;SDS011;7010;48.200;16.332;2023-02-11T08:57:07;14.40;;;11.75;;
13879;SDS011;7010;48.200;16.332;2023-02-11T08:59:35;12.73;;;11.18;;
13879;SDS011;7010;48.200;16.332;2023-02-11T09:02:08;19.40;;;13.50;;
13879;SDS011;7010;48.200;16.332;2023-02-11T09:04:38;13.60;;;11.00;;
13879;SDS011;7010;48.200;16.332;2023-02-11T09:07:07;15.30;;;11.65;;
13879;SDS011;7010;48.200;16.332;2023-02-11T09:09:35;15.90;;;11.63;;
13879;SDS011;7010;48.200;16.332;2023-02-11T09:12:04;14.23;;;12.18;;
13879;SDS011;7010;48.200;16.332;2023-02-11T09:14:32;15.57;;;11.70;;
13879;SDS011;7010;48.200;16.332;2023-02-11T09:17:00;13.30;;;11.90;;
13879;SDS011;7010;48.200;16.332;2023-02-11T09:19:30;17.33;;;11.23;;
13879;SDS011;7010;48.200;16.332;2023-02-11T09:21:59;14.90;;;12.05;;
13879;SDS011;7010;48.200;16.332;2023-02-11T09:24:28;17.42;;;11.68;;
13879;SDS011;7010;48.200;16.332;2023-02-11T09:26:56;19.50;;;12.13;;
13879;SDS011;7010;48.200;16.332;2023-02-11T09:29:24;16.55;;;11.43;;
13879;SDS011;7010;48.200;16.332;2023-02-11T09:31:53;22.08;;;12.00;;
13879;SDS011;7010;48.200;16.332;2023-02-11T09:34:21;15.45;;;10.55;;
13879;SDS011;7010;48.200;16.332;2023-02-11T09:36:51;12.40;;;10.30;;
13879;SDS011;7010;48.200;16.332;2023-02-11T09:39:19;13.07;;;10.38;;
13879;SDS011;7010;48.200;16.332;2023-02-11T09:42:00;16.95;;;12.05;;
13879;SDS011;7010;48.200;16.332;2023-02-11T09:44:37;17.33;;;11.70;;
13879;SDS011;7010;48.200;16.332;2023-02-11T09:47:22;16.17;;;11.48;;
13879;SDS011;7010;48.200;16.332;2023-02-11T09:49:55;16.10;;;12.13;;
13879;SDS011;7010;48.200;16.332;2023-02-11T09:52:31;10.80;;;9.45;;
13879;SDS011;7010;48.200;16.332;2023-02-11T09:55:08;16.85;;;10.90;;
13879;SDS011;7010;48.200;16.332;2023-02-11T09:57:42;11.40;;;10.10;;
13879;SDS011;7010;48.200;16.332;2023-02-11T10:00:16;13.38;;;10.60;;
13879;SDS011;7010;48.200;16.332;2023-02-11T10:02:53;12.95;;;11.40;;
13879;SDS011;7010;48.200;16.332;2023-02-11T10:05:40;10.60;;;9.45;;
13879;SDS011;7010;48.200;16.332;2023-02-11T10:08:23;17.58;;;12.10;;
13879;SDS011;7010;48.200;16.332;2023-02-11T10:11:02;11.25;;;9.57;;
13879;SDS011;7010;48.200;16.332;2023-02-11T10:13:45;13.85;;;9.98;;
13879;SDS011;7010;48.200;16.332;2023-02-11T10:16:24;9.68;;;7.90;;
13879;SDS011;7010;48.200;16.332;2023-02-11T10:19:14;19.92;;;10.48;;
13879;SDS011;7010;48.200;16.332;2023-02-11T10:21:58;11.20;;;9.65;;
13879;SDS011;7010;48.200;16.332;2023-02-11T10:24:34;10.40;;;9.20;;
13879;SDS011;7010;48.200;16.332;2023-02-11T10:27:07;9.15;;;8.15;;
13879;SDS011;7010;48.200;16.332;2023-02-11T10:29:45;19.88;;;11.00;;
13879;SDS011;7010;48.200;16.332;2023-02-11T10:32:23;12.55;;;10.55;;
13879;SDS011;7010;48.200;16.332;2023-02-11T10:34:59;14.07;;;10.45;;
13879;SDS011;7010;48.200;16.332;2023-02-11T10:37:30;11.07;;;9.80;;
13879;SDS011;7010;48.200;16.332;2023-02-11T10:40:00;13.40;;;10.90;;
13879;SDS011;7010;48.200;16.332;2023-02-11T10:42:28;14.55;;;10.13;;
13879;SDS011;7010;48.200;16.332;2023-02-11T10:44:58;11.40;;;10.15;;
13879;SDS011;7010;48.200;16.332;2023-02-11T10:47:30;12.18;;;9.23;;
13879;SDS011;7010;48.200;16.332;2023-02-11T10:50:10;12.48;;;9.43;;
13879;SDS011;7010;48.200;16.332;2023-02-11T10:52:47;11.35;;;9.77;;
13879;SDS011;7010;48.200;16.332;2023-02-11T10:55:17;13.32;;;8.68;;
13879;SDS011;7010;48.200;16.332;2023-02-11T10:57:52;13.80;;;9.60;;
13879;SDS011;7010;48.200;16.332;2023-02-11T11:00:26;16.50;;;10.50;;
13879;SDS011;7010;48.200;16.332;2023-02-11T11:03:02;15.43;;;9.80;;
13879;SDS011;7010;48.200;16.332;2023-02-11T11:05:33;11.48;;;9.55;;
13879;SDS011;7010;48.200;16.332;2023-02-11T11:08:04;10.95;;;9.32;;
13879;SDS011;7010;48.200;16.332;2023-02-11T11:10:36;15.57;;;9.43;;
13879;SDS011;7010;48.200;16.332;2023-02-11T11:13:22;10.95;;;8.82;;
13879;SDS011;7010;48.200;16.332;2023-02-11T11:16:10;20.70;;;10.40;;
13879;SDS011;7010;48.200;16.332;2023-02-11T11:18:47;11.23;;;9.07;;
13879;SDS011;7010;48.200;16.332;2023-02-11T11:21:18;13.15;;;8.30;;
13879;SDS011;7010;48.200;16.332;2023-02-11T11:23:50;14.40;;;9.38;;
13879;SDS011;7010;48.200;16.332;2023-02-11T11:26:22;9.73;;;8.60;;
13879;SDS011;7010;48.200;16.332;2023-02-11T11:28:53;10.90;;;8.10;;
13879;SDS011;7010;48.200;16.332;2023-02-11T11:31:26;7.63;;;6.68;;
13879;SDS011;7010;48.200;16.332;2023-02-11T11:33:59;11.88;;;9.25;;
13879;SDS011;7010;48.200;16.332;2023-02-11T11:36:34;9.18;;;7.50;;
13879;SDS011;7010;48.200;16.332;2023-02-11T11:39:14;9.48;;;7.45;;
13879;SDS011;7010;48.200;16.332;2023-02-11T11:41:55;13.13;;;9.07;;
13879;SDS011;7010;48.200;16.332;2023-02-11T11:44:26;12.57;;;7.32;;
13879;SDS011;7010;48.200;16.332;2023-02-11T11:50:02;9.88;;;7.22;;
13879;SDS011;7010;48.200;16.332;2023-02-11T11:52:42;9.25;;;7.40;;
13879;SDS011;7010;48.200;16.332;2023-02-11T11:55:17;9.20;;;6.97;;
13879;SDS011;7010;48.200;16.332;2023-02-11T11:57:50;9.38;;;7.85;;
13879;SDS011;7010;48.200;16.332;2023-02-11T12:00:19;8.93;;;6.72;;
13879;SDS011;7010;48.200;16.332;2023-02-11T12:06:00;7.85;;;6.53;;
13879;SDS011;7010;48.200;16.332;2023-02-11T12:08:40;9.38;;;7.00;;
13879;SDS011;7010;48.200;16.332;2023-02-11T12:11:16;30.33;;;8.20;;
13879;SDS011;7010;48.200;16.332;2023-02-11T12:13:57;7.40;;;6.22;;
13879;SDS011;7010;48.200;16.332;2023-02-11T12:16:35;8.32;;;7.10;;
13879;SDS011;7010;48.200;16.332;2023-02-11T12:19:23;7.88;;;6.65;;
13879;SDS011;7010;48.200;16.332;2023-02-11T12:22:20;11.55;;;6.72;;
13879;SDS011;7010;48.200;16.332;2023-02-11T12:24:58;7.35;;;5.22;;
13879;SDS011;7010;48.200;16.332;2023-02-11T12:27:47;6.85;;;5.63;;
13879;SDS011;7010;48.200;16.332;2023-02-11T12:30:33;6.25;;;4.45;;
13879;SDS011;7010;48.200;16.332;2023-02-11T12:33:15;9.85;;;5.85;;
13879;SDS011;7010;48.200;16.332;2023-02-11T12:35:53;9.68;;;6.28;;
13879;SDS011;7010;48.200;16.332;2023-02-11T12:38:36;10.25;;;6.25;;
13879;SDS011;7010;48.200;16.332;2023-02-11T12:41:29;9.50;;;7.80;;
13879;SDS011;7010;48.200;16.332;2023-02-11T12:44:24;11.77;;;7.30;;
13879;SDS011;7010;48.200;16.332;2023-02-11T12:47:07;12.00;;;9.20;;
13879;SDS011;7010;48.200;16.332;2023-02-11T12:49:54;10.98;;;8.45;;
13879;SDS011;7010;48.200;16.332;2023-02-11T12:52:39;9.75;;;7.80;;
13879;SDS011;7010;48.200;16.332;2023-02-11T12:55:21;8.55;;;7.60;;
13879;SDS011;7010;48.200;16.332;2023-02-11T12:57:51;10.18;;;8.50;;
13879;SDS011;7010;48.200;16.332;2023-02-11T13:00:23;10.23;;;7.80;;
13879;SDS011;7010;48.200;16.332;2023-02-11T13:02:58;9.68;;;7.72;;
13879;SDS011;7010;48.200;16.332;2023-02-11T13:05:32;12.65;;;9.23;;
13879;SDS011;7010;48.200;16.332;2023-02-11T13:08:08;14.98;;;8.82;;
13879;SDS011;7010;48.200;16.332;2023-02-11T13:10:42;11.43;;;8.32;;
13879;SDS011;7010;48.200;16.332;2023-02-11T13:13:15;10.15;;;7.95;;
13879;SDS011;7010;48.200;16.332;2023-02-11T13:15:49;10.50;;;8.88;;
13879;SDS011;7010;48.200;16.332;2023-02-11T13:18:26;17.88;;;10.82;;
13879;SDS011;7010;48.200;16.332;2023-02-11T13:21:08;17.38;;;10.00;;
13879;SDS011;7010;48.200;16.332;2023-02-11T13:23:58;22.52;;;12.50;;
13879;SDS011;7010;48.200;16.332;2023-02-11T13:26:36;13.95;;;10.20;;
13879;SDS011;7010;48.200;16.332;2023-02-11T13:29:14;10.07;;;8.35;;
13879;SDS011;7010;48.200;16.332;2023-02-11T13:31:52;11.13;;;8.85;;
13879;SDS011;7010;48.200;16.332;2023-02-11T13:34:24;10.70;;;8.15;;
13879;SDS011;7010;48.200;16.332;2023-02-11T13:36:54;13.20;;;10.27;;
13879;SDS011;7010;48.200;16.332;2023-02-11T13:39:23;16.83;;;10.77;;
13879;SDS011;7010;48.200;16.332;2023-02-11T13:41:53;10.43;;;9.15;;
13879;SDS011;7010;48.200;16.332;2023-02-11T13:44:31;9.55;;;8.52;;
13879;SDS011;7010;48.200;16.332;2023-02-11T13:47:02;11.70;;;9.60;;
13879;SDS011;7010;48.200;16.332;2023-02-11T13:49:37;12.88;;;9.60;;
13879;SDS011;7010;48.200;16.332;2023-02-11T13:52:15;12.18;;;9.57;;
13879;SDS011;7010;48.200;16.332;2023-02-11T13:54:48;10.07;;;8.00;;
13879;SDS011;7010;48.200;16.332;2023-02-11T13:57:21;9.70;;;8.70;;
13879;SDS011;7010;48.200;16.332;2023-02-11T14:03:23;14.50;;;8.90;;
13879;SDS011;7010;48.200;16.332;2023-02-11T14:06:16;13.38;;;9.07;;
13879;SDS011;7010;48.200;16.332;2023-02-11T14:09:09;10.98;;;9.32;;
13879;SDS011;7010;48.200;16.332;2023-02-11T14:12:24;10.75;;;7.72;;
13879;SDS011;7010;48.200;16.332;2023-02-11T14:15:17;11.95;;;8.60;;
13879;SDS011;7010;48.200;16.332;2023-02-11T14:17:47;14.65;;;8.52;;
13879;SDS011;7010;48.200;16.332;2023-02-11T14:20:31;9.98;;;8.50;;
13879;SDS011;7010;48.200;16.332;2023-02-11T14:23:20;9.75;;;7.90;;
13879;SDS011;7010;48.200;16.332;2023-02-11T14:25:56;13.95;;;9.70;;
13879;SDS011;7010;48.200;16.332;2023-02-11T14:28:32;9.43;;;8.02;;
13879;SDS011;7010;48.200;16.332;2023-02-11T14:31:02;9.38;;;7.90;;
13879;SDS011;7010;48.200;16.332;2023-02-11T14:36:53;10.27;;;8.35;;
13879;SDS011;7010;48.200;16.332;2023-02-11T14:39:41;10.50;;;8.82;;
13879;SDS011;7010;48.200;16.332;2023-02-11T14:42:23;8.02;;;6.82;;
13879;SDS011;7010;48.200;16.332;2023-02-11T14:44:54;9.40;;;8.02;;
13879;SDS011;7010;48.200;16.332;2023-02-11T14:47:26;8.32;;;7.25;;
13879;SDS011;7010;48.200;16.332;2023-02-11T14:50:00;9.27;;;7.40;;
13879;SDS011;7010;48.200;16.332;2023-02-11T14:52:29;25.80;;;8.73;;
13879;SDS011;7010;48.200;16.332;2023-02-11T14:55:04;9.05;;;6.75;;
13879;SDS011;7010;48.200;16.332;2023-02-11T14:57:43;15.40;;;7.30;;
13879;SDS011;7010;48.200;16.332;2023-02-11T15:00:15;10.15;;;7.50;;
13879;SDS011;7010;48.200;16.332;2023-02-11T15:02:46;9.88;;;6.35;;
13879;SDS011;7010;48.200;16.332;2023-02-11T15:05:16;8.50;;;7.53;;
13879;SDS011;7010;48.200;16.332;2023-02-11T15:07:47;9.23;;;7.82;;
13879;SDS011;7010;48.200;16.332;2023-02-11T15:10:21;7.68;;;6.53;;
13879;SDS011;7010;48.200;16.332;2023-02-11T15:12:55;10.00;;;6.57;;
13879;SDS011;7010;48.200;16.332;2023-02-11T15:15:25;12.15;;;7.60;;
13879;SDS011;7010;48.200;16.332;2023-02-11T15:17:54;9.57;;;7.05;;